• Join FlightAware (Why Join?)
  • Login
  • US Flag 
01:01PM EDT


 

Airport Tracker/Info


-or-


 

Live Flight TrackerFlight Track Log ✈ AAY894 ✈ 05-Apr-2014 ✈ KPIE - KIAG

Flight Track Log - Related Links

Times and Time Zones

All times are in EDT time to prevent confusion due to time zone crossing. See the AAY894 flight status page for this flight to view local times or setup timezone preferences in your user account.

Time Position Orientation Groundspeed Altitude Reporting Facility
EDT Latitude Longitude Course Direction KTS MPH feet Rate Location/Type
07:11AM 27.9000 -82.6833 180° South 180 207 700  Level Tampa TRACON
07:12AM 27.8500 -82.6833 180° South 177 204 2,300 1,980 Climbing Tampa TRACON
07:14AM 27.8975 -82.7728 301° West 210 242 5,800 1,320 Climbing Jacksonville Center
07:15AM 27.9767 -82.7539 12° North 208 239 6,000 1,140 Climbing Jacksonville Center
07:16AM 28.0517 -82.7375 11° North 240 276 8,100 2,280 Climbing Jacksonville Center
07:17AM 28.1289 -82.7183 12° North 263 303 10,600 1,920 Climbing Jacksonville Center
07:18AM 28.2186 -82.7158 North 294 338 12,000 1,800 Climbing Jacksonville Center
07:19AM 28.3231 -82.7064 North 334 384 14,200 2,100 Climbing Jacksonville Center
07:20AM 28.4294 -82.7014 North 365 420 16,300 2,100 Climbing Jacksonville Center
07:21AM 28.5358 -82.6942 North 379 436 18,400 1,920 Climbing Jacksonville Center
07:22AM 28.6528 -82.6867 North 397 457 20,200 1,740 Climbing Jacksonville Center
07:23AM 28.7633 -82.6794 North 402 463 21,900 960 Climbing Jacksonville Center
07:24AM 28.8739 -82.6839 358° North 402 463 22,200 840 Climbing Jacksonville Center
07:25AM 28.9783 -82.7311 338° Northwest 390 449 23,600 1,320 Climbing Jacksonville Center
07:26AM 29.0847 -82.7808 338° Northwest 398 458 24,900 960 Climbing Jacksonville Center
07:27AM 29.1933 -82.7878 357° North 398 458 25,600 480 Climbing Jacksonville Center
07:28AM 29.3103 -82.7736 North 398 458 25,900 420 Climbing Jacksonville Center
07:29AM 29.4272 -82.7592 North 410 472 26,500 900 Climbing Jacksonville Center
07:30AM 29.5336 -82.7494 North 417 480 27,800 1,320 Climbing Jacksonville Center
07:31AM 29.6464 -82.7347 North 417 480 29,200 1,500 Climbing Jacksonville Center
07:32AM 29.7611 -82.7228 North 417 480 30,800 900 Climbing Jacksonville Center
07:33AM 29.8717 -82.7106 North 403 464 31,000 60 Climbing Jacksonville Center
07:34AM 29.9825 -82.6958 North 403 464 31,000 -60 Level Jacksonville Center
07:35AM 30.0950 -82.6814 North 403 464 30,900  Descending Jacksonville Center
07:36AM 30.2058 -82.6667 North 403 464 31,000  Climbing Jacksonville Center
07:37AM 30.3144 -82.6544 North 409 471 31,000  Level Jacksonville Center
07:38AM 30.4394 -82.6397 North 409 471 31,000  Level Jacksonville Center
07:39AM 30.5378 -82.6319 North 403 464 31,000  Level Jacksonville Center
07:40AM 30.6483 -82.6172 North 403 464 31,000 60 Level Jacksonville Center
07:41AM 30.7589 -82.6050 North 403 464 31,200 600 Climbing Jacksonville Center
07:42AM 30.8717 -82.5925 North 403 464 32,200 840 Climbing Jacksonville Center
07:43AM 30.9781 -82.5800 North 398 458 32,900 360 Climbing Jacksonville Center
07:44AM 31.0886 -82.5650 North 398 458 33,000  Climbing Jacksonville Center
07:45AM 31.2014 -82.5500 North 398 458 33,000  Level Jacksonville Center
07:46AM 31.3081 -82.5400 North 398 458 33,000  Level Jacksonville Center
07:47AM 31.4311 -82.5200 North 398 458 33,000  Level Jacksonville Center
07:48AM 31.5397 -82.5075 North 398 458 33,000  Level Jacksonville Center
07:50AM 31.7139 -82.4839 North 393 452 33,000  Level Atlanta Center
07:51AM 31.8200 -82.4672 North 393 452 33,000  Level Atlanta Center
07:52AM 31.9283 -82.4483 North 388 447 33,000  Level Atlanta Center
07:53AM 32.0386 -82.4292 North 388 447 33,000  Level Atlanta Center
07:54AM 32.1469 -82.4150 North 388 447 33,000  Level Atlanta Center
07:55AM 32.2325 -82.3986 North 388 447 33,000  Level Atlanta Center
07:56AM 32.3511 -82.3719 11° North 388 447 33,000  Level Atlanta Center
07:57AM 32.4633 -82.3475 10° North 388 447 33,000  Level Atlanta Center
07:58AM 32.5717 -82.3233 11° North 388 447 33,000  Level Atlanta Center
07:59AM 32.6819 -82.3014 10° North 393 452 33,000  Level Atlanta Center
08:00AM 32.7922 -82.2769 11° North 393 452 33,000  Level Atlanta Center
08:01AM 32.9025 -82.2550 North 393 452 33,000  Level Atlanta Center
08:02AM 33.0150 -82.2303 10° North 393 452 33,000  Level Atlanta Center
08:03AM 33.1292 -82.2033 11° North 398 458 33,000  Level Atlanta Center
08:04AM 33.2394 -82.1786 11° North 403 464 33,000  Level Atlanta Center
08:05AM 33.3539 -82.1536 10° North 409 471 33,000  Level Atlanta Center
08:06AM 33.4664 -82.1289 10° North 409 471 33,000  Level Atlanta Center
08:07AM 33.5828 -82.1039 10° North 414 476 33,000  Level Atlanta Center
08:08AM 33.7097 -82.0736 11° North 414 476 33,000  Level Atlanta Center
08:09AM 33.8261 -82.0483 10° North 419 482 33,000  Level Atlanta Center
08:10AM 33.9447 -82.0231 10° North 419 482 33,000  Level Atlanta Center
08:11AM 34.0592 -81.9978 10° North 419 482 33,000  Level Atlanta Center
08:12AM 34.1817 -81.9722 10° North 429 494 33,000  Level Atlanta Center
08:13AM 34.2961 -81.9442 11° North 429 494 33,000  Level Atlanta Center
08:14AM 34.4186 -81.9161 11° North 429 494 33,000  Level Atlanta Center
08:15AM 34.5372 -81.8903 10° North 429 494 33,000  Level Atlanta Center
08:16AM 34.6558 -81.8672 North 429 494 33,000  Level Atlanta Center
08:17AM 34.7722 -81.8364 12° North 429 494 33,000  Level Atlanta Center
08:18AM 34.8928 -81.8128 North 429 494 33,000  Level Atlanta Center
08:19AM 35.0131 -81.7842 11° North 429 494 33,000  Level Atlanta Center
08:20AM 35.1336 -81.7581 10° North 429 494 33,000  Level Atlanta Center
08:21AM 35.2522 -81.7294 11° North 429 494 33,000  Level Atlanta Center
08:22AM 35.3706 -81.7031 10° North 429 494 33,000  Level Atlanta Center
08:23AM 35.4911 -81.6769 10° North 429 494 33,000  Level Atlanta Center
08:24AM 35.6094 -81.6478 11° North 429 494 33,000  Level Atlanta Center
08:25AM 35.7319 -81.6186 11° North 429 494 33,000  Level Atlanta Center
08:26AM 35.8522 -81.5894 11° North 429 494 33,000  Level Atlanta Center
08:27AM 35.9708 -81.5628 10° North 429 494 33,000  Level Atlanta Center
08:28AM 36.0767 -81.5389 10° North 429 494 33,000  Level Atlanta Center
08:29AM 36.1928 -81.5072 12° North 429 494 33,000  Level Atlanta Center
08:30AM 36.3111 -81.4803 10° North 429 494 33,000  Level Atlanta Center
08:31AM 36.4292 -81.4481 12° North 429 494 33,000  Level Atlanta Center
08:32AM 36.5497 -81.4208 10° North 429 494 33,000  Level Atlanta Center
08:34AM 36.8456 -81.3353 13° North 449 517 33,000  Level Indianapolis Center
08:35AM 36.9606 -81.2878 18° North 449 517 33,000  Level Indianapolis Center
08:36AM 37.0781 -81.2411 18° North 449 517 33,000  Level Indianapolis Center
08:37AM 37.1972 -81.1925 18° North 450 518 33,000  Level Indianapolis Center
08:38AM 37.3089 -81.1461 18° North 448 516 33,000  Level Indianapolis Center
08:39AM 37.4483 -81.0883 18° North 449 517 33,000  Level Indianapolis Center
08:40AM 37.5661 -81.0403 18° North 449 517 33,000  Level Indianapolis Center
08:41AM 37.6833 -80.9925 18° North 451 519 33,000  Level Indianapolis Center
08:42AM 37.8194 -80.9364 18° North 451 519 33,000  Level Indianapolis Center
08:43AM 37.9389 -80.8864 18° North 451 519 33,000  Level Indianapolis Center
08:44AM 38.0578 -80.8381 18° North 451 519 33,000  Level Indianapolis Center
08:45AM 38.1781 -80.7872 18° North 451 519 33,000  Level Indianapolis Center
08:46AM 38.2981 -80.7358 19° North 452 520 33,000  Level Indianapolis Center
08:47AM 38.4183 -80.6858 18° North 453 521 33,000  Level Indianapolis Center
08:48AM 38.5394 -80.6344 18° North 455 524 33,000  Level Indianapolis Center
08:49AM 38.6831 -80.5747 18° North 456 525 33,000  Level Indianapolis Center
08:50AM 38.8039 -80.5225 19° North 456 525 33,000  Level Indianapolis Center
08:51AM 38.9250 -80.4703 19° North 457 526 33,000  Level Indianapolis Center
08:52AM 39.0478 -80.4175 18° North 461 531 33,000  Level Indianapolis Center
08:53AM 39.1686 -80.3653 19° North 461 531 33,000  Level Indianapolis Center
08:54AM 39.2897 -80.3139 18° North 461 531 33,000  Level Indianapolis Center
08:55AM 39.4097 -80.2617 19° North 459 528 33,000  Level Indianapolis Center
08:57AM 39.5528 -80.1983 19° North 456 525 33,000  Level Indianapolis Center
08:58AM 39.6733 -80.1467 18° North 455 524 33,000  Level Indianapolis Center
08:59AM 39.8128 -80.0875 18° North 452 520 33,000  Level Cleveland Center
09:00AM 39.9553 -80.0253 19° North 451 519 33,000  Level Cleveland Center
09:01AM 40.0719 -79.9725 19° North 449 517 33,000  Level Cleveland Center
09:02AM 40.1897 -79.9200 19° North 449 517 33,000 -240 Level Cleveland Center
09:03AM 40.3069 -79.8681 19° North 450 518 32,600 -600 Descending Cleveland Center
09:04AM 40.4247 -79.8147 19° North 452 520 31,800 -720 Descending Cleveland Center
09:05AM 40.5431 -79.7619 19° North 452 520 31,200 -420 Descending Cleveland Center
09:06AM 40.6847 -79.6981 19° North 452 520 31,000 -120 Descending Cleveland Center
09:07AM 40.8056 -79.6439 19° North 456 525 31,000 -480 Level Cleveland Center
09:08AM 40.9253 -79.5892 19° North 456 525 30,100 -900 Descending Cleveland Center
09:09AM 41.0453 -79.5350 19° North 457 526 29,200 -960 Descending Cleveland Center
09:10AM 41.1658 -79.4786 19° North 458 527 28,200 -1,020 Descending Cleveland Center
09:11AM 41.2867 -79.4244 19° North 458 527 27,200 -1,020 Descending Cleveland Center
09:12AM 41.4119 -79.3658 19° North 460 529 26,200 -1,140 Descending Cleveland Center
09:13AM 41.5497 -79.3019 19° North 438 504 24,900 -1,200 Descending Cleveland Center
09:14AM 41.6572 -79.2783 North 398 458 23,800 -1,140 Descending Cleveland Center
09:15AM 41.7553 -79.2569 North 397 457 22,600 -1,320 Descending Cleveland Center
09:16AM 41.8650 -79.2339 North 400 460 21,100 -1,440 Descending Cleveland Center
09:17AM 41.9783 -79.2069 10° North 373 429 19,700 -1,560 Descending Cleveland Center
09:18AM 42.0739 -79.1847 10° North 351 404 18,000 -1,800 Descending Cleveland Center
09:19AM 42.1631 -79.1514 15° North 344 396 16,000 -2,100 Descending Cleveland Center
09:20AM 42.2575 -79.0581 36° Northeast 355 409 13,800 -1,980 Descending Cleveland Center
09:21AM 42.3336 -78.9822 36° Northeast 343 395 12,000 -1,380 Descending Cleveland Center
09:22AM 42.4072 -78.9103 36° Northeast 328 377 11,000 -780 Descending Cleveland Center
09:23AM 42.4703 -78.8475 36° Northeast 308 354 10,500 -1,140 Descending Cleveland Center
09:25AM 42.5478 -78.7683 37° Northeast 297 342 8,700 -1,740 Descending Cleveland Center
09:26AM 42.6094 -78.7058 37° Northeast 292 336 7,000 -1,560 Descending Cleveland Center
09:27AM 42.6825 -78.6589 25° Northeast 282 325 5,500 -1,080 Descending Cleveland Center
09:28AM 42.7567 -78.6403 10° North 261 300 4,800 -840 Descending Cleveland Center
09:29AM 42.8331 -78.6264 North 260 299 3,900 -660 Descending Cleveland Center
09:30AM 42.8931 -78.6222 North 230 265 3,500 -240 Descending Cleveland Center
09:31AM 42.9500 -78.6344 351° North 201 231 3,500  Level Cleveland Center
09:32AM 43.0056 -78.6461 351° North 198 228 3,500 -360 Level Cleveland Center
09:33AM 43.0628 -78.6628 348° North 200 230 2,800 -600 Descending Cleveland Center
09:34AM 43.1003 -78.7217 311° West 201 231 2,300 -300 Descending Cleveland Center
09:35AM 43.1081 -78.7792 281° West 166 191 2,300 -240 Level Cleveland Center
09:36AM 43.1086 -78.8328 271° West 136 157 1,900 -420 Descending Cleveland Center
09:37AM 43.1083 -78.8725 269° West 124 143 1,500 -420 Descending Cleveland Center